Aplicació Alertes

Dades de l'estació automàtica Baldomar

?
?
Resum diari 23:00 TU
Dades diàries de l'estació meteorològica
Temperatura mitjana 1.9 °C
Temperatura màxima 11.9 °C 14:44 TU
Temperatura mínima -3.6 °C 7:24 TU
Humitat relativa mitjana 89%
Precipitació acumulada 0.1 mm
Ratxa màxima del vent (2 m) 9.7 km/h - 181º 12:58 TU
Irradiació solar global 7.4 MJ/m2

El tram horari està expressat en Temps Universal (TU). Cal sumar una hora en horari d'hivern i dues en horari d'estiu per passar a l'hora oficial.

Baldomar

Metadades estació meteorol´gica
Municipi Artesa de Segre
Comarca Noguera
Altitud 366 m
Data alta 24.10.2006
Estat actual Operativa
Dades de període
Període
TU
TM
°C
TX
°C
TN
°C
HRM
%
PPT
mm
VVM (2 m)
km/h
DVM (2 m)
graus
VVX (2 m)
km/h
RS
W/m2
00:00 - 00:30 -0.7 -0.5 -0.9 95 0.0 0.4 94 3.6 0
00:30 - 01:00 -1.0 -0.4 -1.6 95 0.0 1.8 15 3.2 0
01:00 - 01:30 -1.2 -0.8 -1.6 96 0.0 0.4 173 2.5 0
01:30 - 02:00 -1.4 -1.2 -1.7 96 0.0 0.7 119 2.5 0
02:00 - 02:30 -2.0 -1.6 -2.4 96 0.0 0.7 356 2.9 0
02:30 - 03:00 -2.1 -1.9 -2.2 96 0.0 0.4 49 2.2 0
03:00 - 03:30 -2.7 -2.2 -2.9 96 0.0 0.7 181 2.5 0
03:30 - 04:00 -2.8 -2.7 -3.0 97 0.0 0.0 326 1.4 0
04:00 - 04:30 -3.1 -3.0 -3.2 97 0.0 0.4 326 2.5 0
04:30 - 05:00 -3.2 -3.2 -3.3 97 0.0 0.7 143 2.9 0
05:00 - 05:30 -3.2 -3.1 -3.3 97 0.0 0.7 317 2.9 0
05:30 - 06:00 -3.1 -3.0 -3.2 97 0.0 0.7 295 3.6 0
06:00 - 06:30 -3.2 -3.2 -3.3 97 0.0 0.7 324 3.2 0
06:30 - 07:00 -3.4 -3.3 -3.5 97 0.0 0.0 326 2.5 1
07:00 - 07:30 -3.5 -3.5 -3.6 97 0.0 0.4 69 2.5 12
07:30 - 08:00 -3.5 -3.4 -3.5 97 0.0 0.7 355 2.9 31
08:00 - 08:30 -3.3 -3.1 -3.4 97 0.0 1.1 127 3.6 64
08:30 - 09:00 -2.7 -2.2 -3.1 97 0.0 0.7 223 2.9 98
09:00 - 09:30 -1.9 -1.4 -2.1 97 0.1 1.1 275 4.0 127
09:30 - 10:00 -1.3 -0.9 -1.4 97 0.0 1.8 200 5.8 151
10:00 - 10:30 -0.5 0.1 -0.9 97 0.0 1.4 207 6.1 183
10:30 - 11:00 0.5 1.2 0.1 97 0.0 1.4 262 5.0 250
11:00 - 11:30 2.2 3.3 1.2 97 0.0 0.7 302 4.3 400
11:30 - 12:00 4.4 5.6 3.4 97 0.0 1.4 175 4.7 463
12:00 - 12:30 6.5 7.8 5.7 96 0.0 2.5 170 6.1 457
12:30 - 13:00 8.7 9.3 7.8 78 0.0 2.9 175 9.7 431
13:00 - 13:30 9.9 10.5 9.3 69 0.0 3.2 180 9.4 393
13:30 - 14:00 10.9 11.7 10.1 65 0.0 1.8 171 6.1 346
14:00 - 14:30 11.2 11.5 10.8 63 0.0 2.5 200 9.4 286
14:30 - 15:00 11.5 11.9 11.1 61 0.0 2.2 189 7.6 218
15:00 - 15:30 11.2 11.3 11.0 62 0.0 4.0 193 7.6 144
15:30 - 16:00 10.4 10.9 9.8 65 0.0 6.1 184 9.0 71
16:00 - 16:30 8.9 9.7 8.0 70 0.0 4.3 132 7.9 15
16:30 - 17:00 7.6 8.0 7.0 75 0.0 3.6 51 6.5 0
17:00 - 17:30 6.1 6.9 5.8 81 0.0 2.2 11 5.4 0
17:30 - 18:00 5.5 5.9 4.7 83 0.0 1.4 31 5.8 0
18:00 - 18:30 4.7 5.3 4.3 87 0.0 1.1 35 3.2 0
18:30 - 19:00 4.9 5.4 4.0 86 0.0 1.8 44 4.0 0
19:00 - 19:30 3.7 4.1 3.5 89 0.0 1.8 81 4.7 0
19:30 - 20:00 3.0 3.7 2.4 90 0.0 2.2 60 5.8 0
20:00 - 20:30 2.1 2.5 1.8 92 0.0 0.7 48 2.5 0
20:30 - 21:00 1.9 2.5 1.5 93 0.0 0.4 16 2.5 0
21:00 - 21:30 1.7 2.1 1.2 94 0.0 1.1 90 3.2 0
21:30 - 22:00 1.2 1.5 0.3 95 0.0 0.4 338 2.9 0
22:00 - 22:30 0.6 1.2 0.1 95 0.0 1.1 79 2.9 0
22:30 - 23:00 0.7 1.2 -0.2 95 0.0 1.1 43 3.2 0
23:00 - 23:30 0.0 0.4 -0.3 96 0.0 0.7 16 3.2 0

Les dades en taronja només han passat un control de qualitat automàtic. Resta pendent la seva validació definitiva.